OCN134 EDDF-HKMO
Flight info
| Callsign | OCN134 |
|---|---|
| Flight time | N/A |
| Altitude | 37000 |
| Route | CINDY8S/18 CINDY Z74 LAMPU DCT NOMBO Y161 MAH DCT VAVOR DCT RADIZ/N0466F390 DCT NEMEK DCT GLOMY DCT PETAK DCT DIMIS UL604 SALUN N705 BOPIX N710 TAKRI P751 LXR M999 JDW G650 RASKA/N0464F400 G650 KONET M308 GETOL/N0455F390 T129 ALEMU/N0454F400 UN301 IBNOK IBNOK3A |
| Aircraft | A332/H-SDE2E3FGHIJ3J4J5LM1OP2RWXYZ/LB1D1 |
Departure
| Time | 2026-05-07 14:17 |
|---|---|
| Airport | Frankfurt Main Airport (EDDF) |
Arrival
| Time | N/A |
|---|---|
| Airport | Moi International Airport (HKMO) |
| Time | Latitude | Longitude | Altitude | Speed | Heading |
|---|---|---|---|---|---|
| 2026-05-07 13:48 | 50.03870 | 8.54786 | 365 ft | 0 kts | 160° |
| 2026-05-07 14:12 | 50.03860 | 8.54792 | 364 ft | 6 kts | 160° |
| 2026-05-07 14:12 | 50.03789 | 8.54807 | 357 ft | 12 kts | 205° |
| 2026-05-07 14:13 | 50.03749 | 8.54698 | 358 ft | 12 kts | 249° |
| 2026-05-07 14:13 | 50.03717 | 8.54564 | 356 ft | 14 kts | 249° |
| 2026-05-07 14:13 | 50.03680 | 8.54407 | 353 ft | 16 kts | 249° |
| 2026-05-07 14:13 | 50.03640 | 8.54242 | 351 ft | 17 kts | 250° |
| 2026-05-07 14:14 | 50.03600 | 8.54073 | 356 ft | 17 kts | 249° |
| 2026-05-07 14:14 | 50.03558 | 8.53898 | 347 ft | 18 kts | 249° |
| 2026-05-07 14:14 | 50.03514 | 8.53714 | 354 ft | 18 kts | 249° |
| 2026-05-07 14:14 | 50.03469 | 8.53524 | 353 ft | 19 kts | 250° |
| 2026-05-07 14:15 | 50.03422 | 8.53331 | 347 ft | 19 kts | 250° |
| 2026-05-07 14:15 | 50.03374 | 8.53131 | 336 ft | 20 kts | 249° |
| 2026-05-07 14:15 | 50.03325 | 8.52924 | 335 ft | 21 kts | 250° |
| 2026-05-07 14:15 | 50.03275 | 8.52714 | 334 ft | 21 kts | 249° |
| 2026-05-07 14:16 | 50.03158 | 8.52599 | 335 ft | 29 kts | 185° |
| 2026-05-07 14:16 | 50.02760 | 8.52591 | 336 ft | 85 kts | 178° |
| 2026-05-07 14:16 | 50.01989 | 8.52608 | 335 ft | 135 kts | 180° |
| 2026-05-07 14:16 | 50.00911 | 8.52624 | 397 ft | 170 kts | 180° |
| 2026-05-07 14:17 | 49.99741 | 8.52666 | 1085 ft | 165 kts | 181° |
| 2026-05-07 14:17 | 49.98583 | 8.52676 | 1637 ft | 174 kts | 181° |
| 2026-05-07 14:17 | 49.97306 | 8.52837 | 1827 ft | 196 kts | 165° |
| 2026-05-07 14:17 | 49.96128 | 8.54070 | 1968 ft | 220 kts | 127° |
| 2026-05-07 14:18 | 49.95289 | 8.56134 | 2446 ft | 230 kts | 118° |
| 2026-05-07 14:18 | 49.94533 | 8.58336 | 3138 ft | 232 kts | 115° |
| 2026-05-07 14:18 | 49.94051 | 8.60730 | 3702 ft | 238 kts | 98° |
| 2026-05-07 14:18 | 49.93887 | 8.63405 | 4026 ft | 258 kts | 92° |
| 2026-05-07 14:19 | 49.93791 | 8.66245 | 4635 ft | 268 kts | 94° |
| 2026-05-07 14:19 | 49.93355 | 8.69068 | 5355 ft | 273 kts | 116° |
| 2026-05-07 14:19 | 49.92145 | 8.71340 | 6133 ft | 276 kts | 140° |
| 2026-05-07 14:19 | 49.90607 | 8.73140 | 6893 ft | 279 kts | 145° |
| 2026-05-07 14:20 | 49.89041 | 8.74942 | 7659 ft | 283 kts | 138° |
| 2026-05-07 14:20 | 49.87803 | 8.77279 | 8417 ft | 287 kts | 122° |
| 2026-05-07 14:20 | 49.86780 | 8.79958 | 9192 ft | 291 kts | 119° |
| 2026-05-07 14:20 | 49.85792 | 8.82711 | 9649 ft | 294 kts | 119° |
| 2026-05-07 14:21 | 49.84801 | 8.85486 | 9954 ft | 295 kts | 119° |
| 2026-05-07 14:21 | 49.83795 | 8.88285 | 10418 ft | 303 kts | 119° |
| 2026-05-07 14:21 | 49.82745 | 8.91193 | 10845 ft | 317 kts | 119° |
| 2026-05-07 14:21 | 49.81629 | 8.94272 | 11017 ft | 340 kts | 119° |
| 2026-05-07 14:22 | 49.80442 | 8.97540 | 11035 ft | 354 kts | 119° |
| 2026-05-07 14:22 | 49.79227 | 9.00879 | 11041 ft | 357 kts | 119° |
| 2026-05-07 14:22 | 49.78009 | 9.04219 | 11044 ft | 356 kts | 119° |
| 2026-05-07 14:22 | 49.76805 | 9.07571 | 11204 ft | 358 kts | 117° |
| 2026-05-07 14:23 | 49.75904 | 9.11189 | 11786 ft | 362 kts | 106° |
| 2026-05-07 14:23 | 49.75257 | 9.14953 | 12540 ft | 363 kts | 104° |
| 2026-05-07 14:23 | 49.74405 | 9.18637 | 13247 ft | 366 kts | 118° |
| 2026-05-07 14:23 | 49.73032 | 9.21970 | 13914 ft | 370 kts | 126° |
| 2026-05-07 14:24 | 49.71426 | 9.25098 | 14489 ft | 373 kts | 130° |
| 2026-05-07 14:24 | 49.69698 | 9.28112 | 15058 ft | 376 kts | 133° |
| 2026-05-07 14:24 | 49.67918 | 9.31098 | 15641 ft | 380 kts | 133° |
| 2026-05-07 14:24 | 49.66117 | 9.34109 | 16189 ft | 383 kts | 133° |
| 2026-05-07 14:25 | 49.64313 | 9.37162 | 16755 ft | 386 kts | 133° |
| 2026-05-07 14:25 | 49.62433 | 9.40138 | 17297 ft | 389 kts | 140° |
| 2026-05-07 14:25 | 49.60280 | 9.42680 | 17864 ft | 391 kts | 146° |
| 2026-05-07 14:25 | 49.58006 | 9.45016 | 18399 ft | 394 kts | 149° |
| 2026-05-07 14:26 | 49.55666 | 9.47240 | 18858 ft | 397 kts | 150° |
| 2026-05-07 14:26 | 49.53280 | 9.49414 | 19291 ft | 400 kts | 151° |
| 2026-05-07 14:26 | 49.50865 | 9.51577 | 19752 ft | 403 kts | 152° |
| 2026-05-07 14:26 | 49.48435 | 9.53749 | 20216 ft | 405 kts | 151° |
| 2026-05-07 14:27 | 49.45990 | 9.55942 | 20691 ft | 408 kts | 151° |
| 2026-05-07 14:27 | 49.43533 | 9.58157 | 21143 ft | 411 kts | 151° |
| 2026-05-07 14:27 | 49.41066 | 9.60390 | 21589 ft | 413 kts | 151° |
| 2026-05-07 14:27 | 49.38582 | 9.62642 | 22042 ft | 416 kts | 151° |
| 2026-05-07 14:28 | 49.36091 | 9.64925 | 22465 ft | 419 kts | 149° |
| 2026-05-07 14:28 | 49.33735 | 9.67581 | 22896 ft | 423 kts | 141° |
| 2026-05-07 14:28 | 49.31522 | 9.70596 | 23244 ft | 428 kts | 139° |
| 2026-05-07 14:28 | 49.29357 | 9.73755 | 23634 ft | 431 kts | 137° |
| 2026-05-07 14:29 | 49.27222 | 9.76996 | 24001 ft | 434 kts | 136° |
| 2026-05-07 14:29 | 49.25093 | 9.80280 | 24372 ft | 435 kts | 136° |
| 2026-05-07 14:29 | 49.22954 | 9.83588 | 24661 ft | 439 kts | 136° |
| 2026-05-07 14:29 | 49.20792 | 9.86917 | 24975 ft | 442 kts | 136° |
| 2026-05-07 14:30 | 49.18617 | 9.90248 | 25335 ft | 443 kts | 136° |
| 2026-05-07 14:30 | 49.16428 | 9.93582 | 25699 ft | 445 kts | 136° |
| 2026-05-07 14:30 | 49.14231 | 9.96917 | 26059 ft | 446 kts | 136° |
| 2026-05-07 14:30 | 49.12019 | 10.00262 | 26385 ft | 448 kts | 136° |
| 2026-05-07 14:31 | 49.09799 | 10.03615 | 26724 ft | 450 kts | 136° |
| 2026-05-07 14:31 | 49.07570 | 10.06975 | 27059 ft | 451 kts | 136° |
| 2026-05-07 14:31 | 49.05320 | 10.10317 | 27425 ft | 452 kts | 137° |
| 2026-05-07 14:31 | 49.03028 | 10.13613 | 27742 ft | 454 kts | 138° |
| 2026-05-07 14:32 | 49.00710 | 10.16889 | 28046 ft | 455 kts | 139° |
| 2026-05-07 14:32 | 48.98372 | 10.20169 | 28313 ft | 459 kts | 138° |
| 2026-05-07 14:32 | 48.96014 | 10.23470 | 28640 ft | 461 kts | 138° |
| 2026-05-07 14:32 | 48.93651 | 10.26784 | 28989 ft | 463 kts | 138° |
| 2026-05-07 14:33 | 48.91282 | 10.30115 | 29299 ft | 465 kts | 138° |
| 2026-05-07 14:33 | 48.88907 | 10.33457 | 29595 ft | 466 kts | 138° |
| 2026-05-07 14:33 | 48.86523 | 10.36813 | 29892 ft | 468 kts | 138° |
| 2026-05-07 14:33 | 48.84130 | 10.40179 | 30185 ft | 470 kts | 138° |
| 2026-05-07 14:34 | 48.81768 | 10.43615 | 30417 ft | 471 kts | 136° |
| 2026-05-07 14:34 | 48.79475 | 10.47179 | 30678 ft | 473 kts | 134° |
| 2026-05-07 14:34 | 48.77217 | 10.50813 | 30901 ft | 474 kts | 134° |
| 2026-05-07 14:34 | 48.74962 | 10.54482 | 31092 ft | 477 kts | 134° |
| 2026-05-07 14:35 | 48.72691 | 10.58176 | 31247 ft | 480 kts | 134° |
| 2026-05-07 14:35 | 48.70403 | 10.61874 | 31480 ft | 482 kts | 134° |
| 2026-05-07 14:35 | 48.68115 | 10.65578 | 31781 ft | 482 kts | 132° |
| 2026-05-07 14:35 | 48.65950 | 10.69443 | 32116 ft | 481 kts | 131° |
| 2026-05-07 14:36 | 48.63812 | 10.73318 | 32460 ft | 480 kts | 131° |
| 2026-05-07 14:36 | 48.61686 | 10.77202 | 32762 ft | 479 kts | 131° |
| 2026-05-07 14:36 | 48.59569 | 10.81088 | 33054 ft | 479 kts | 131° |
| 2026-05-07 14:36 | 48.57459 | 10.84970 | 33340 ft | 478 kts | 131° |
| 2026-05-07 14:37 | 48.55348 | 10.88851 | 33594 ft | 478 kts | 131° |
| 2026-05-07 14:37 | 48.51129 | 10.96595 | 34163 ft | 477 kts | 131° |
| 2026-05-07 14:37 | 48.49020 | 11.00454 | 34367 ft | 477 kts | 131° |
| 2026-05-07 14:38 | 48.46910 | 11.04309 | 34553 ft | 477 kts | 131° |
| 2026-05-07 14:38 | 48.44793 | 11.08169 | 34739 ft | 478 kts | 131° |
| 2026-05-07 14:38 | 48.42674 | 11.12027 | 34937 ft | 478 kts | 132° |
| 2026-05-07 14:38 | 48.40555 | 11.15881 | 35136 ft | 478 kts | 132° |
| 2026-05-07 14:39 | 48.38431 | 11.19737 | 35322 ft | 478 kts | 132° |
| 2026-05-07 14:39 | 48.36309 | 11.23583 | 35525 ft | 478 kts | 132° |
| 2026-05-07 14:39 | 48.34184 | 11.27431 | 35730 ft | 478 kts | 132° |
| 2026-05-07 14:39 | 48.32062 | 11.31267 | 35953 ft | 477 kts | 132° |
| 2026-05-07 14:40 | 48.29941 | 11.35097 | 36129 ft | 477 kts | 132° |
| 2026-05-07 14:40 | 48.27816 | 11.38927 | 36290 ft | 478 kts | 132° |
| 2026-05-07 14:40 | 48.25688 | 11.42758 | 36471 ft | 478 kts | 133° |
| 2026-05-07 14:40 | 48.23555 | 11.46590 | 36636 ft | 478 kts | 133° |
| 2026-05-07 14:41 | 48.21423 | 11.50417 | 36804 ft | 478 kts | 133° |
| 2026-05-07 14:41 | 48.20008 | 11.52953 | 36916 ft | 479 kts | 133° |
| 2026-05-07 14:41 | 48.15723 | 11.60619 | 37008 ft | 481 kts | 133° |
| 2026-05-07 14:42 | 48.11431 | 11.68280 | 37013 ft | 479 kts | 133° |
| 2026-05-07 14:42 | 48.07142 | 11.75912 | 37014 ft | 479 kts | 133° |
| 2026-05-07 14:43 | 48.02847 | 11.83531 | 37009 ft | 479 kts | 133° |
| 2026-05-07 14:43 | 47.98542 | 11.91145 | 37009 ft | 480 kts | 133° |
| 2026-05-07 14:44 | 47.94232 | 11.98748 | 37008 ft | 480 kts | 133° |
| 2026-05-07 14:44 | 47.89922 | 12.06332 | 37008 ft | 479 kts | 134° |
| 2026-05-07 14:45 | 47.85607 | 12.13901 | 37009 ft | 479 kts | 134° |
| 2026-05-07 14:45 | 47.81286 | 12.21458 | 37010 ft | 479 kts | 134° |
| 2026-05-07 14:46 | 47.79124 | 12.25232 | 37122 ft | 480 kts | 134° |
| 2026-05-07 14:46 | 47.76961 | 12.29003 | 37298 ft | 479 kts | 134° |
| 2026-05-07 14:46 | 47.74800 | 12.32763 | 37447 ft | 479 kts | 134° |
| 2026-05-07 14:46 | 47.72635 | 12.36525 | 37588 ft | 479 kts | 134° |
| 2026-05-07 14:47 | 47.70467 | 12.40288 | 37721 ft | 480 kts | 134° |
| 2026-05-07 14:47 | 47.68298 | 12.44049 | 37913 ft | 479 kts | 134° |
| 2026-05-07 14:47 | 47.66128 | 12.47805 | 38081 ft | 479 kts | 134° |
| 2026-05-07 14:47 | 47.63957 | 12.51556 | 38260 ft | 479 kts | 134° |
| 2026-05-07 14:48 | 47.61700 | 12.55072 | 38402 ft | 477 kts | 138° |
| 2026-05-07 14:48 | 47.59344 | 12.58526 | 38554 ft | 477 kts | 139° |
| 2026-05-07 14:48 | 47.56962 | 12.61942 | 38691 ft | 476 kts | 140° |
| 2026-05-07 14:48 | 47.54569 | 12.65330 | 38813 ft | 476 kts | 140° |
| 2026-05-07 14:49 | 47.52175 | 12.68699 | 38963 ft | 475 kts | 140° |
| 2026-05-07 14:49 | 47.49778 | 12.72066 | 38999 ft | 477 kts | 140° |
| 2026-05-07 14:49 | 47.44948 | 12.78844 | 39010 ft | 480 kts | 140° |
| 2026-05-07 14:50 | 47.40111 | 12.85635 | 39010 ft | 479 kts | 140° |
| 2026-05-07 14:50 | 47.35285 | 12.92399 | 39011 ft | 478 kts | 140° |
| 2026-05-07 14:51 | 47.30457 | 12.99146 | 39008 ft | 478 kts | 140° |
| 2026-05-07 14:51 | 47.25631 | 13.05872 | 38990 ft | 477 kts | 141° |
| 2026-05-07 14:52 | 47.20808 | 13.12576 | 39007 ft | 478 kts | 141° |
| 2026-05-07 14:52 | 47.15959 | 13.19297 | 38997 ft | 479 kts | 141° |
| 2026-05-07 14:53 | 47.11106 | 13.26004 | 38993 ft | 479 kts | 141° |
| 2026-05-07 14:53 | 47.06255 | 13.32695 | 38983 ft | 478 kts | 141° |
| 2026-05-07 14:54 | 47.01417 | 13.39353 | 38977 ft | 476 kts | 141° |
| 2026-05-07 14:54 | 46.96583 | 13.45984 | 38955 ft | 477 kts | 141° |
| 2026-05-07 14:55 | 46.91740 | 13.52609 | 38968 ft | 477 kts | 141° |
| 2026-05-07 14:55 | 46.86884 | 13.59232 | 38929 ft | 478 kts | 142° |
| 2026-05-07 14:56 | 46.82019 | 13.65854 | 38935 ft | 478 kts | 142° |
| 2026-05-07 14:56 | 46.77147 | 13.72470 | 38932 ft | 478 kts | 142° |
| 2026-05-07 14:57 | 46.72276 | 13.79069 | 38925 ft | 478 kts | 142° |
| 2026-05-07 14:57 | 46.67400 | 13.85652 | 38928 ft | 478 kts | 142° |
| 2026-05-07 14:58 | 46.62516 | 13.92230 | 38913 ft | 479 kts | 142° |
| 2026-05-07 14:58 | 46.57625 | 13.98801 | 38921 ft | 478 kts | 142° |
| 2026-05-07 14:59 | 46.52724 | 14.05371 | 38918 ft | 478 kts | 142° |
| 2026-05-07 14:59 | 46.47856 | 14.11879 | 38917 ft | 479 kts | 142° |
| 2026-05-07 15:00 | 46.42944 | 14.18428 | 38921 ft | 480 kts | 142° |
| 2026-05-07 15:00 | 46.38017 | 14.24980 | 38938 ft | 480 kts | 142° |
| 2026-05-07 15:01 | 46.33090 | 14.31519 | 38939 ft | 479 kts | 142° |
| 2026-05-07 15:01 | 46.28167 | 14.38033 | 38939 ft | 479 kts | 142° |
| 2026-05-07 15:02 | 46.23245 | 14.44528 | 38938 ft | 479 kts | 143° |
| 2026-05-07 15:02 | 46.18326 | 14.51004 | 38927 ft | 478 kts | 143° |
| 2026-05-07 15:03 | 46.13414 | 14.57454 | 38940 ft | 477 kts | 143° |
| 2026-05-07 15:03 | 46.08512 | 14.63876 | 38944 ft | 476 kts | 143° |
| 2026-05-07 15:04 | 46.03626 | 14.70261 | 38950 ft | 473 kts | 143° |
| 2026-05-07 15:04 | 45.98754 | 14.76609 | 38956 ft | 473 kts | 143° |
| 2026-05-07 15:05 | 45.93872 | 14.82954 | 38960 ft | 473 kts | 143° |
| 2026-05-07 15:05 | 45.88987 | 14.89288 | 38960 ft | 473 kts | 143° |
| 2026-05-07 15:06 | 45.84096 | 14.95616 | 38964 ft | 473 kts | 143° |
| 2026-05-07 15:06 | 45.79213 | 15.01917 | 38968 ft | 473 kts | 143° |
| 2026-05-07 15:07 | 45.74311 | 15.08228 | 38957 ft | 473 kts | 143° |
| 2026-05-07 15:07 | 45.69410 | 15.14521 | 38978 ft | 473 kts | 144° |
| 2026-05-07 15:08 | 45.64504 | 15.20804 | 38985 ft | 473 kts | 144° |
| 2026-05-07 15:08 | 45.59605 | 15.27063 | 38978 ft | 473 kts | 144° |
| 2026-05-07 15:09 | 45.54705 | 15.33236 | 38983 ft | 473 kts | 145° |
| 2026-05-07 15:09 | 45.49725 | 15.39345 | 38980 ft | 472 kts | 145° |
| 2026-05-07 15:10 | 45.44732 | 15.45433 | 38979 ft | 473 kts | 145° |
| 2026-05-07 15:10 | 45.39737 | 15.51524 | 38985 ft | 473 kts | 145° |
| 2026-05-07 15:11 | 45.34744 | 15.57608 | 38987 ft | 472 kts | 145° |
| 2026-05-07 15:11 | 45.29751 | 15.63680 | 38979 ft | 472 kts | 145° |
| 2026-05-07 15:12 | 45.24756 | 15.69740 | 38989 ft | 472 kts | 145° |
| 2026-05-07 15:12 | 45.19759 | 15.75787 | 38995 ft | 472 kts | 145° |
| 2026-05-07 15:13 | 45.14760 | 15.81822 | 38996 ft | 472 kts | 145° |
| 2026-05-07 15:13 | 45.09755 | 15.87849 | 39003 ft | 472 kts | 145° |
| 2026-05-07 15:14 | 45.04749 | 15.93864 | 38997 ft | 471 kts | 145° |
| 2026-05-07 15:14 | 44.99768 | 15.99837 | 39003 ft | 469 kts | 145° |
| 2026-05-07 15:15 | 44.94798 | 16.05781 | 38999 ft | 468 kts | 145° |
| 2026-05-07 15:15 | 44.89824 | 16.11713 | 39001 ft | 468 kts | 145° |
| 2026-05-07 15:16 | 44.84848 | 16.17632 | 39010 ft | 468 kts | 145° |
| 2026-05-07 15:16 | 44.79866 | 16.23548 | 39001 ft | 469 kts | 145° |
| 2026-05-07 15:17 | 44.74874 | 16.29462 | 39014 ft | 469 kts | 145° |
| 2026-05-07 15:17 | 44.69875 | 16.35370 | 39012 ft | 469 kts | 145° |
| 2026-05-07 15:18 | 44.64873 | 16.41269 | 39022 ft | 469 kts | 145° |
| 2026-05-07 15:18 | 44.59867 | 16.47157 | 39016 ft | 470 kts | 146° |
| 2026-05-07 15:19 | 44.54838 | 16.53059 | 39018 ft | 472 kts | 145° |
| 2026-05-07 15:19 | 44.49795 | 16.58963 | 39022 ft | 473 kts | 145° |
| 2026-05-07 15:20 | 44.44745 | 16.64864 | 39032 ft | 472 kts | 145° |
| 2026-05-07 15:20 | 44.39697 | 16.70748 | 39027 ft | 472 kts | 145° |
| 2026-05-07 15:21 | 44.34645 | 16.76622 | 39042 ft | 472 kts | 145° |
| 2026-05-07 15:21 | 44.29587 | 16.82490 | 39043 ft | 473 kts | 145° |
| 2026-05-07 15:22 | 44.24527 | 16.88347 | 39050 ft | 473 kts | 145° |
| 2026-05-07 15:22 | 44.19461 | 16.94197 | 39055 ft | 473 kts | 146° |
| 2026-05-07 15:23 | 44.14392 | 17.00035 | 39063 ft | 473 kts | 146° |
| 2026-05-07 15:23 | 44.09306 | 17.05879 | 39053 ft | 474 kts | 146° |
| 2026-05-07 15:24 | 44.04214 | 17.11718 | 39071 ft | 475 kts | 146° |
| 2026-05-07 15:24 | 43.99973 | 17.16571 | 39078 ft | 475 kts | 146° |
| 2026-05-07 15:25 | 43.94868 | 17.22401 | 39068 ft | 475 kts | 146° |
| 2026-05-07 15:25 | 43.89745 | 17.28236 | 39086 ft | 477 kts | 146° |
| 2026-05-07 15:26 | 43.84608 | 17.34075 | 39078 ft | 478 kts | 146° |
| 2026-05-07 15:26 | 43.79465 | 17.39909 | 39084 ft | 478 kts | 146° |
| 2026-05-07 15:27 | 43.74316 | 17.45736 | 39076 ft | 478 kts | 146° |
| 2026-05-07 15:27 | 43.69169 | 17.51545 | 39085 ft | 478 kts | 146° |
| 2026-05-07 15:28 | 43.64019 | 17.57343 | 39084 ft | 477 kts | 146° |
| 2026-05-07 15:28 | 43.58872 | 17.63128 | 39081 ft | 477 kts | 146° |
| 2026-05-07 15:29 | 43.53651 | 17.68763 | 39083 ft | 475 kts | 149° |
| 2026-05-07 15:29 | 43.48238 | 17.73948 | 39081 ft | 473 kts | 151° |
| 2026-05-07 15:30 | 43.42787 | 17.79037 | 39086 ft | 473 kts | 151° |
| 2026-05-07 15:30 | 43.37358 | 17.84149 | 39075 ft | 473 kts | 150° |
| 2026-05-07 15:31 | 43.31943 | 17.89280 | 39075 ft | 473 kts | 150° |
| 2026-05-07 15:31 | 43.26529 | 17.94415 | 39075 ft | 473 kts | 150° |
| 2026-05-07 15:32 | 43.21115 | 17.99539 | 39076 ft | 473 kts | 150° |
| 2026-05-07 15:32 | 43.15696 | 18.04653 | 39070 ft | 473 kts | 151° |
| 2026-05-07 15:33 | 43.10273 | 18.09758 | 39078 ft | 473 kts | 151° |
| 2026-05-07 15:33 | 43.04845 | 18.14858 | 39085 ft | 474 kts | 151° |
| 2026-05-07 15:34 | 42.99413 | 18.19950 | 39084 ft | 473 kts | 151° |
| 2026-05-07 15:34 | 42.93981 | 18.25033 | 39063 ft | 473 kts | 151° |
| 2026-05-07 15:35 | 42.88541 | 18.30109 | 39081 ft | 474 kts | 151° |
| 2026-05-07 15:35 | 42.83092 | 18.35183 | 39078 ft | 474 kts | 151° |
| 2026-05-07 15:36 | 42.77642 | 18.40248 | 39077 ft | 474 kts | 151° |
| 2026-05-07 15:36 | 42.72191 | 18.45303 | 39073 ft | 474 kts | 151° |
| 2026-05-07 15:37 | 42.66727 | 18.50358 | 39084 ft | 476 kts | 151° |
| 2026-05-07 15:37 | 42.61236 | 18.55427 | 39066 ft | 477 kts | 151° |
| 2026-05-07 15:38 | 42.55739 | 18.60492 | 39066 ft | 478 kts | 151° |
| 2026-05-07 15:38 | 42.50233 | 18.65553 | 39069 ft | 478 kts | 151° |
| 2026-05-07 15:39 | 42.44725 | 18.70605 | 39081 ft | 479 kts | 152° |
| 2026-05-07 15:39 | 42.39195 | 18.75664 | 39058 ft | 480 kts | 152° |
| 2026-05-07 15:40 | 42.33659 | 18.80720 | 39062 ft | 480 kts | 152° |
| 2026-05-07 15:40 | 42.28117 | 18.85771 | 39066 ft | 481 kts | 152° |
| 2026-05-07 15:41 | 42.22570 | 18.90816 | 39062 ft | 481 kts | 152° |
| 2026-05-07 15:41 | 42.17003 | 18.95866 | 39063 ft | 483 kts | 152° |
| 2026-05-07 15:42 | 42.11422 | 19.00919 | 39066 ft | 483 kts | 152° |
| 2026-05-07 15:42 | 42.05839 | 19.05965 | 39068 ft | 483 kts | 152° |
| 2026-05-07 15:43 | 42.00254 | 19.11001 | 39044 ft | 483 kts | 152° |
| 2026-05-07 15:43 | 41.94641 | 19.16047 | 39061 ft | 487 kts | 152° |
| 2026-05-07 15:44 | 41.88999 | 19.21112 | 39064 ft | 488 kts | 152° |
| 2026-05-07 15:44 | 41.83351 | 19.26173 | 39056 ft | 488 kts | 152° |
| 2026-05-07 15:45 | 41.77702 | 19.31213 | 39024 ft | 487 kts | 153° |
| 2026-05-07 15:45 | 41.71905 | 19.35898 | 39055 ft | 488 kts | 157° |
| 2026-05-07 15:46 | 41.63025 | 19.42636 | 39047 ft | 490 kts | 157° |
| 2026-05-07 15:47 | 41.57107 | 19.47152 | 39044 ft | 490 kts | 156° |
| 2026-05-07 15:47 | 41.51199 | 19.51686 | 39040 ft | 491 kts | 157° |
| 2026-05-07 15:48 | 41.45254 | 19.56245 | 39038 ft | 494 kts | 157° |
| 2026-05-07 15:48 | 41.39286 | 19.60816 | 39039 ft | 495 kts | 157° |
| 2026-05-07 15:49 | 41.33314 | 19.65381 | 39036 ft | 495 kts | 157° |
| 2026-05-07 15:49 | 41.27342 | 19.69934 | 39069 ft | 496 kts | 158° |
| 2026-05-07 15:50 | 41.21306 | 19.74517 | 39061 ft | 502 kts | 158° |
| 2026-05-07 15:50 | 41.15230 | 19.79128 | 39047 ft | 503 kts | 158° |
| 2026-05-07 15:51 | 41.09161 | 19.83729 | 39042 ft | 502 kts | 158° |
| 2026-05-07 15:51 | 41.03131 | 19.88287 | 39038 ft | 502 kts | 158° |
| 2026-05-07 15:52 | 40.97060 | 19.92866 | 39039 ft | 502 kts | 158° |
| 2026-05-07 15:52 | 40.90987 | 19.97434 | 39043 ft | 502 kts | 158° |
| 2026-05-07 15:53 | 40.84873 | 20.02024 | 39040 ft | 502 kts | 158° |
| 2026-05-07 15:53 | 40.78789 | 20.06581 | 39047 ft | 506 kts | 159° |
| 2026-05-07 15:54 | 40.72663 | 20.11151 | 39057 ft | 512 kts | 159° |
| 2026-05-07 15:54 | 40.66458 | 20.15783 | 39057 ft | 512 kts | 159° |
| 2026-05-07 15:55 | 40.60285 | 20.20392 | 39075 ft | 508 kts | 159° |
| 2026-05-07 15:55 | 40.54114 | 20.24976 | 39076 ft | 512 kts | 160° |
| 2026-05-07 15:56 | 40.47858 | 20.29599 | 39077 ft | 520 kts | 160° |
| 2026-05-07 15:56 | 40.41537 | 20.34272 | 39090 ft | 521 kts | 159° |
| 2026-05-07 15:57 | 40.35227 | 20.38937 | 39076 ft | 520 kts | 160° |
| 2026-05-07 15:57 | 40.28886 | 20.43605 | 39082 ft | 525 kts | 159° |
| 2026-05-07 15:58 | 40.22494 | 20.48299 | 39099 ft | 527 kts | 159° |
| 2026-05-07 15:58 | 40.16089 | 20.52997 | 39096 ft | 528 kts | 159° |
| 2026-05-07 15:59 | 40.09677 | 20.57690 | 39088 ft | 528 kts | 159° |
| 2026-05-07 15:59 | 40.03187 | 20.62134 | 39088 ft | 525 kts | 163° |
| 2026-05-07 16:00 | 39.96572 | 20.66132 | 39091 ft | 524 kts | 165° |
| 2026-05-07 16:00 | 39.89897 | 20.70096 | 39096 ft | 524 kts | 165° |
| 2026-05-07 16:01 | 39.83318 | 20.74052 | 39099 ft | 524 kts | 165° |
| 2026-05-07 16:01 | 39.76665 | 20.78083 | 39103 ft | 524 kts | 164° |
| 2026-05-07 16:02 | 39.70102 | 20.82069 | 39102 ft | 525 kts | 163° |
| 2026-05-07 16:02 | 39.63513 | 20.86426 | 39089 ft | 531 kts | 160° |
| 2026-05-07 16:03 | 39.57037 | 20.90921 | 39096 ft | 531 kts | 160° |
| 2026-05-07 16:03 | 39.50520 | 20.95429 | 39097 ft | 531 kts | 160° |
| 2026-05-07 16:04 | 39.43996 | 20.99892 | 39085 ft | 530 kts | 161° |
| 2026-05-07 16:04 | 39.37517 | 21.04299 | 39090 ft | 525 kts | 161° |
| 2026-05-07 16:05 | 39.31002 | 21.08704 | 39088 ft | 532 kts | 161° |
| 2026-05-07 16:05 | 39.24449 | 21.13133 | 39082 ft | 532 kts | 161° |
| 2026-05-07 16:06 | 39.17894 | 21.17562 | 39083 ft | 532 kts | 160° |
| 2026-05-07 16:06 | 39.11332 | 21.21985 | 39085 ft | 533 kts | 160° |
| 2026-05-07 16:07 | 39.04760 | 21.26404 | 39083 ft | 533 kts | 160° |
| 2026-05-07 16:07 | 38.99289 | 21.30074 | 39089 ft | 534 kts | 160° |
| 2026-05-07 16:08 | 38.92703 | 21.34485 | 39088 ft | 534 kts | 160° |
| 2026-05-07 16:08 | 38.86113 | 21.38889 | 39083 ft | 534 kts | 160° |
| 2026-05-07 16:09 | 38.79527 | 21.43281 | 39098 ft | 533 kts | 160° |
| 2026-05-07 16:09 | 38.72937 | 21.47666 | 39092 ft | 534 kts | 160° |
| 2026-05-07 16:10 | 38.66349 | 21.52042 | 39091 ft | 533 kts | 160° |
| 2026-05-07 16:10 | 38.59756 | 21.56412 | 39094 ft | 533 kts | 160° |
| 2026-05-07 16:11 | 38.53168 | 21.60771 | 39094 ft | 533 kts | 160° |
| 2026-05-07 16:11 | 38.46576 | 21.65123 | 39096 ft | 533 kts | 160° |
| 2026-05-07 16:12 | 38.39985 | 21.69467 | 39077 ft | 533 kts | 160° |
| 2026-05-07 16:12 | 38.33392 | 21.73801 | 39093 ft | 533 kts | 160° |
| 2026-05-07 16:13 | 38.26799 | 21.78127 | 39086 ft | 533 kts | 160° |
| 2026-05-07 16:13 | 38.20208 | 21.82441 | 39096 ft | 534 kts | 160° |
| 2026-05-07 16:14 | 38.13596 | 21.86760 | 39091 ft | 535 kts | 159° |
| 2026-05-07 16:14 | 38.06968 | 21.91081 | 39099 ft | 535 kts | 159° |
| 2026-05-07 16:15 | 38.00324 | 21.95406 | 39103 ft | 535 kts | 159° |
| 2026-05-07 16:15 | 37.93700 | 21.99709 | 39098 ft | 535 kts | 159° |
| 2026-05-07 16:16 | 37.87069 | 22.04006 | 39105 ft | 536 kts | 159° |
| 2026-05-07 16:16 | 37.80407 | 22.08312 | 39103 ft | 538 kts | 159° |
| 2026-05-07 16:17 | 37.73751 | 22.12609 | 39105 ft | 537 kts | 159° |
| 2026-05-07 16:17 | 37.67097 | 22.16896 | 39105 ft | 537 kts | 159° |
| 2026-05-07 16:18 | 37.60428 | 22.21181 | 39113 ft | 538 kts | 159° |
| 2026-05-07 16:18 | 37.53750 | 22.25465 | 39110 ft | 538 kts | 159° |
| 2026-05-07 16:19 | 37.47079 | 22.29737 | 39113 ft | 538 kts | 159° |
| 2026-05-07 16:19 | 37.40398 | 22.34004 | 39115 ft | 538 kts | 159° |
| 2026-05-07 16:20 | 37.33722 | 22.38250 | 39116 ft | 537 kts | 159° |
| 2026-05-07 16:20 | 37.27058 | 22.42474 | 39117 ft | 536 kts | 159° |
| 2026-05-07 16:21 | 37.20449 | 22.46653 | 39128 ft | 536 kts | 159° |